LROP/OTP METAR and TAF weather

Enter ICAO airport designator
Station Type Date Time Source
LROP METAR 2019/04/20 22:30 UTC NOAA

LROP 202230Z 27007KT CAVOK 04/01 Q1026 NOSIG


Station Type Date Time Source
LROP Decoded METAR 2019/04/20 22:30 UTC NOAA

Bucuresti Otopeni, Romania (LROP) 44-33N 026-06E 95M
Apr 20, 2019 - 06:30 PM EDT / 2019.04.20 2230 UTC
Wind: from the W (270 degrees) at 8 MPH (7 KT):0
Visibility: greater than 7 mile(s):0
Temperature: 39 F (4 C)
Dew Point: 33 F (1 C)
Relative Humidity: 80%
Pressure (altimeter): 30.30 in. Hg (1026 hPa)
ob: LROP 202230Z 27007KT CAVOK 04/01 Q1026 NOSIG
cycle: 22

Station Type Date Time Source
LROP TAF 2019/04/20 18:33 UTC NOAA

TAF LROP 201700Z 2018/2118 VRB04KT 9999 SCT045 PROB30
TEMPO 2100/2103 SCT045CB PROB30
TEMPO 2112/2118 SCT045CB

Example: see airport list